createdAt,value
2023-01-25T00:01:59.818Z,103842.50
2023-01-25T00:06:50.376Z,103836.91
2023-01-25T00:11:41.603Z,103833.91
2023-01-25T00:16:32.436Z,103835.72
2023-01-25T00:21:31.867Z,103839.03
2023-01-25T00:26:25.377Z,103819.88
2023-01-25T00:31:29.929Z,103802.56
2023-01-25T00:36:48.338Z,103796.56
2023-01-25T00:41:38.949Z,103805.72
2023-01-25T00:46:32.650Z,103803.31
2023-01-25T00:51:24.059Z,103788.47
2023-01-25T00:56:18.187Z,103787.03
2023-01-25T01:01:12.117Z,103784.00
2023-01-25T01:06:08.672Z,103791.81
2023-01-25T01:11:06.430Z,103798.25
2023-01-25T01:16:04.021Z,103774.13
2023-01-25T01:20:56.299Z,103788.66
2023-01-25T01:25:50.720Z,103788.66
2023-01-25T01:30:42.675Z,103784.97
2023-01-25T01:35:37.323Z,103796.03
2023-01-25T01:40:29.174Z,103787.09
2023-01-25T01:45:54.930Z,103788.66
2023-01-25T01:50:59.551Z,103783.06
2023-01-25T01:55:51.392Z,103782.81
2023-01-25T02:00:45.125Z,103789.97
2023-01-25T02:05:47.039Z,103781.34
2023-01-25T02:10:42.048Z,103755.59
2023-01-25T02:15:41.420Z,103782.75
2023-01-25T02:20:41.468Z,103767.03
2023-01-25T02:25:35.869Z,103782.53
2023-01-25T02:30:30.112Z,103751.34
2023-01-25T02:35:28.605Z,103758.88
2023-01-25T02:40:20.410Z,103760.44
2023-01-25T02:45:20.790Z,103760.09
2023-01-25T02:50:16.147Z,103749.72
2023-01-25T02:55:07.682Z,103752.59
2023-01-25T02:59:59.008Z,103739.31
2023-01-25T03:04:53.563Z,103749.16
2023-01-25T03:09:49.174Z,103733.25
2023-01-25T03:14:40.827Z,103735.88
2023-01-25T03:19:33.515Z,103737.75
2023-01-25T03:24:29.510Z,103676.78
2023-01-25T03:29:20.963Z,103722.88
2023-01-25T03:34:18.298Z,103719.84
2023-01-25T03:39:08.669Z,103702.31
2023-01-25T03:44:07.591Z,103696.97
2023-01-25T03:48:59.119Z,103695.56
2023-01-25T03:53:50.175Z,103681.78
2023-01-25T03:58:43.744Z,103691.84
2023-01-25T04:03:38.323Z,103694.16
2023-01-25T04:08:31.427Z,103688.56
2023-01-25T04:13:24.480Z,103693.56
2023-01-25T04:18:18.747Z,103680.53
2023-01-25T04:23:13.869Z,103692.78
2023-01-25T04:28:06.117Z,103687.41
2023-01-25T04:32:56.778Z,103688.09
2023-01-25T04:37:58.456Z,103690.22
2023-01-25T04:42:57.607Z,103686.13
2023-01-25T04:47:48.986Z,103686.88
2023-01-25T04:52:44.142Z,103677.66
2023-01-25T04:57:35.544Z,103662.38
2023-01-25T05:02:29.962Z,103661.50
2023-01-25T05:07:20.333Z,103652.38
2023-01-25T05:12:13.774Z,103628.97
2023-01-25T05:17:19.478Z,103641.19
2023-01-25T05:22:21.416Z,103655.66
2023-01-25T05:27:17.699Z,103653.63
2023-01-25T05:32:19.243Z,103650.31
2023-01-25T05:37:16.466Z,103656.31
2023-01-25T05:42:15.696Z,103628.03
2023-01-25T05:47:06.923Z,103641.13
2023-01-25T05:51:58.939Z,103643.75
2023-01-25T05:57:04.128Z,103643.22
2023-01-25T06:01:59.568Z,103648.34
2023-01-25T06:06:51.351Z,103630.13
2023-01-25T06:11:41.612Z,103636.59
2023-01-25T06:16:35.911Z,103640.31
2023-01-25T06:21:49.090Z,103647.44
2023-01-25T06:26:40.176Z,103656.16
2023-01-25T06:31:31.541Z,103643.47
2023-01-25T06:36:29.068Z,103660.13
2023-01-25T06:41:23.299Z,103653.63
2023-01-25T06:46:15.917Z,103658.97
2023-01-25T06:51:10.448Z,103647.22
2023-01-25T06:56:06.359Z,103649.09
2023-01-25T07:00:58.099Z,103636.63
2023-01-25T07:05:49.863Z,103645.66
2023-01-25T07:10:42.663Z,103641.75
2023-01-25T07:15:38.237Z,103650.81
2023-01-25T07:20:29.473Z,103627.00
2023-01-25T07:25:20.879Z,103627.63
2023-01-25T07:30:13.465Z,103630.44
2023-01-25T07:35:08.240Z,103633.63
2023-01-25T07:39:59.844Z,103631.16
2023-01-25T07:44:51.667Z,103618.13
2023-01-25T07:49:41.809Z,103590.06
2023-01-25T07:54:36.161Z,103614.69
2023-01-25T07:59:29.162Z,103611.75
2023-01-25T08:04:21.306Z,103600.88
2023-01-25T08:09:16.205Z,103600.47
2023-01-25T08:14:11.832Z,103602.13
2023-01-25T08:19:04.931Z,103598.22
2023-01-25T08:23:56.324Z,103606.13
2023-01-25T08:28:53.505Z,103586.56
2023-01-25T08:33:47.663Z,103602.09
2023-01-25T08:38:39.572Z,103602.91
2023-01-25T08:43:30.951Z,103597.91
2023-01-25T08:48:22.740Z,103602.09
2023-01-25T08:53:18.885Z,103591.06
2023-01-25T08:58:14.166Z,103601.44
2023-01-25T09:03:08.777Z,103598.16
2023-01-25T09:08:03.366Z,103588.41
2023-01-25T09:12:59.425Z,103563.38
2023-01-25T09:17:50.445Z,103573.91
2023-01-25T09:22:44.753Z,103571.75
2023-01-25T09:27:36.254Z,103579.22
2023-01-25T09:32:33.483Z,103558.50
2023-01-25T09:37:26.761Z,103578.09
2023-01-25T09:42:47.998Z,103573.75
2023-01-25T09:47:49.976Z,103562.94
2023-01-25T09:53:09.955Z,103551.56
2023-01-25T09:58:06.033Z,103561.94
2023-01-25T10:03:07.606Z,103554.91
2023-01-25T10:08:07.473Z,103537.31
2023-01-25T10:13:03.364Z,103537.00
2023-01-25T10:18:09.885Z,103541.50
2023-01-25T10:23:34.245Z,103527.81
2023-01-25T10:28:44.281Z,103510.38
2023-01-25T10:33:47.723Z,103491.25
2023-01-25T10:38:53.715Z,103499.06
2023-01-25T10:44:08.525Z,103475.91
2023-01-25T10:49:22.409Z,103481.47
2023-01-25T10:54:29.346Z,103470.47
2023-01-25T10:59:32.690Z,103474.38
2023-01-25T11:04:48.977Z,103452.31
2023-01-25T11:09:57.033Z,103446.28
2023-01-25T11:14:57.836Z,103435.53
2023-01-25T11:19:53.027Z,103429.44
2023-01-25T11:24:52.548Z,103415.31
2023-01-25T11:29:52.127Z,103403.88
2023-01-25T11:35:07.657Z,103397.66
2023-01-25T11:40:18.204Z,103382.22
2023-01-25T11:45:49.962Z,103359.84
2023-01-25T11:50:47.993Z,103353.81
2023-01-25T11:55:51.158Z,103344.03
2023-01-25T12:01:07.372Z,103323.59
2023-01-25T12:06:13.087Z,103314.47
2023-01-25T12:11:12.057Z,103289.88
2023-01-25T12:16:29.980Z,103289.09
2023-01-25T12:21:43.983Z,103270.91
2023-01-25T12:26:50.693Z,103259.28
2023-01-25T12:32:02.376Z,103246.31
2023-01-25T12:36:59.959Z,103254.19
2023-01-25T12:41:55.060Z,103227.88
2023-01-25T12:46:55.115Z,103217.41
2023-01-25T12:51:47.763Z,103193.84
2023-01-25T12:56:47.115Z,103192.34
2023-01-25T13:01:49.598Z,103189.97
2023-01-25T13:07:00.274Z,103188.50
2023-01-25T13:11:59.991Z,103183.00
2023-01-25T13:17:08.487Z,103171.81
2023-01-25T13:22:03.728Z,103185.03
2023-01-25T13:27:30.843Z,103174.19
2023-01-25T13:33:00.080Z,103167.59
2023-01-25T13:38:05.082Z,103165.03
2023-01-25T13:43:09.860Z,103153.94
2023-01-25T13:48:10.502Z,103152.59
2023-01-25T13:53:02.965Z,103148.16
2023-01-25T13:57:57.419Z,103151.97
2023-01-25T14:02:58.533Z,103134.19
2023-01-25T14:07:51.606Z,103131.53
2023-01-25T14:12:44.487Z,103126.88
2023-01-25T14:17:39.535Z,103123.44
2023-01-25T14:22:36.074Z,103116.94
2023-01-25T14:27:28.196Z,103120.41
2023-01-25T14:32:24.324Z,103120.63
2023-01-25T14:37:21.538Z,103115.75
2023-01-25T14:42:16.072Z,103103.97
2023-01-25T14:47:27.807Z,103116.38
2023-01-25T14:52:23.545Z,103112.31
2023-01-25T14:57:34.400Z,103125.09
2023-01-25T15:02:37.522Z,103102.84
2023-01-25T15:07:47.594Z,103109.97
2023-01-25T15:12:41.212Z,103108.28
2023-01-25T15:17:48.513Z,103094.44
2023-01-25T15:22:47.694Z,103105.09
2023-01-25T15:27:43.813Z,103100.41
2023-01-25T15:32:39.695Z,103060.31
2023-01-25T15:37:33.584Z,103079.31
2023-01-25T15:42:36.859Z,103090.81
2023-01-25T15:47:34.660Z,103079.53
2023-01-25T15:52:26.408Z,103081.59
2023-01-25T15:57:28.994Z,103081.50
2023-01-25T16:02:20.752Z,103080.50
2023-01-25T16:07:33.454Z,103075.06
2023-01-25T16:12:27.250Z,103078.50
2023-01-25T16:17:25.786Z,103063.97
2023-01-25T16:22:20.203Z,103041.50
2023-01-25T16:27:27.027Z,103062.19
2023-01-25T16:32:19.231Z,103052.94
2023-01-25T16:37:10.380Z,103038.63
2023-01-25T16:42:05.987Z,103030.97
2023-01-25T16:46:58.936Z,103008.41
2023-01-25T16:51:54.368Z,103016.78
2023-01-25T16:56:46.805Z,102985.09
2023-01-25T17:01:42.331Z,102995.16
2023-01-25T17:06:35.642Z,102985.81
2023-01-25T17:11:27.157Z,102962.13
2023-01-25T17:16:18.689Z,102955.25
2023-01-25T17:21:15.617Z,102933.91
2023-01-25T17:26:08.303Z,102918.50
2023-01-25T17:31:01.906Z,102900.88
2023-01-25T17:35:58.852Z,102904.78
2023-01-25T17:40:57.033Z,102878.16
2023-01-25T17:45:50.598Z,102887.09
2023-01-25T17:50:42.796Z,102887.47
2023-01-25T17:55:40.337Z,102870.25
2023-01-25T18:00:36.199Z,102870.81
2023-01-25T18:05:30.180Z,102857.94
2023-01-25T18:10:29.413Z,102863.56
2023-01-25T18:15:24.169Z,102849.00
2023-01-25T18:20:24.759Z,102849.91
2023-01-25T18:25:34.464Z,102844.03
2023-01-25T18:30:37.271Z,102834.06
2023-01-25T18:35:32.841Z,102828.84
2023-01-25T18:40:25.129Z,102828.38
2023-01-25T18:45:17.200Z,102805.97
2023-01-25T18:50:14.532Z,102811.69
2023-01-25T18:55:09.699Z,102819.34
2023-01-25T19:00:00.264Z,102805.38
2023-01-25T19:04:50.439Z,102798.69
2023-01-25T19:09:44.056Z,102796.94
2023-01-25T19:14:41.498Z,102803.91
2023-01-25T19:19:36.297Z,102806.44
2023-01-25T19:24:28.470Z,102793.81
2023-01-25T19:29:22.994Z,102778.25
2023-01-25T19:34:17.591Z,102781.78
2023-01-25T19:39:13.531Z,102770.00
2023-01-25T19:44:07.891Z,102747.09
2023-01-25T19:49:03.410Z,102747.88
2023-01-25T19:54:01.239Z,102728.81
2023-01-25T19:58:53.486Z,102739.84
2023-01-25T20:03:47.956Z,102739.13
2023-01-25T20:08:42.881Z,102734.72
2023-01-25T20:13:39.870Z,102745.81
2023-01-25T20:18:33.678Z,102741.59
2023-01-25T20:23:25.524Z,102720.38
2023-01-25T20:28:17.728Z,102735.00
2023-01-25T20:33:10.898Z,102733.84
2023-01-25T20:38:03.045Z,102714.69
2023-01-25T20:42:58.681Z,102720.38
2023-01-25T20:47:50.929Z,102716.63
2023-01-25T20:52:57.643Z,102726.47
2023-01-25T20:57:54.279Z,102722.34
2023-01-25T21:02:50.128Z,102713.31
2023-01-25T21:07:43.583Z,102704.56
2023-01-25T21:12:36.922Z,102680.59
2023-01-25T21:17:27.189Z,102699.63
2023-01-25T21:22:19.620Z,102686.34
2023-01-25T21:27:10.268Z,102681.38
2023-01-25T21:32:06.250Z,102677.41
2023-01-25T21:36:58.524Z,102673.00
2023-01-25T21:41:50.558Z,102662.38
2023-01-25T21:47:06.053Z,102681.75
2023-01-25T21:52:02.578Z,102676.06
2023-01-25T21:56:57.209Z,102651.97
2023-01-25T22:01:50.693Z,102669.75
2023-01-25T22:06:40.793Z,102672.50
2023-01-25T22:11:35.363Z,102669.84
2023-01-25T22:16:26.846Z,102681.16
2023-01-25T22:21:24.244Z,102667.38
2023-01-25T22:26:22.961Z,102657.53
2023-01-25T22:31:17.583Z,102652.94
2023-01-25T22:36:12.597Z,102657.75
2023-01-25T22:41:09.031Z,102657.91
2023-01-25T22:46:00.787Z,102655.78
2023-01-25T22:50:53.644Z,102646.16
2023-01-25T22:55:44.013Z,102640.25
2023-01-25T23:00:34.706Z,102642.31
2023-01-25T23:05:25.444Z,102641.72
2023-01-25T23:10:20.140Z,102616.09
2023-01-25T23:15:17.694Z,102637.91
2023-01-25T23:20:10.008Z,102608.84
2023-01-25T23:25:02.694Z,102612.34
2023-01-25T23:29:56.433Z,102606.38
2023-01-25T23:34:53.700Z,102594.56
2023-01-25T23:39:45.920Z,102596.44
2023-01-25T23:44:37.522Z,102566.56
2023-01-25T23:49:32.766Z,102571.56
2023-01-25T23:54:23.426Z,102554.59
2023-01-25T23:59:17.883Z,102552.41
